Time;durP1;ratioP1;P1;durP2;ratioP2;P2;SDS_P1;SDS_P2;PMS_P1;PMS_P2;Temp;Humidity;BMP_temperature;BMP_pressure;BME280_temperature;BME280_humidity;BME280_pressure;Samples;Min_cycle;Max_cycle;Signal;HPM_P1;HPM_P2
2022/04/03 00:02:10;;;;;;;1.00;0.82;;;7.10;99.90;;;;;;4776730;30;20126;-91
2022/04/03 00:05:38;;;;;;;;;;;;;;;;;;;;;
2022/04/03 00:12:32;;;;;;;;;;;;;;;;;;;;;
2022/04/03 00:22:23;;;;;;;;;;;;;;;;;;;;;
2022/04/03 00:25:08;;;;;;;1.23;1.13;;;6.90;99.90;;;;;;4782203;30;20044;-89
2022/04/03 00:27:52;;;;;;;1.00;0.90;;;6.90;99.90;;;;;;4804044;29;20053;-90
2022/04/03 00:37:56;;;;;;;0.90;0.90;;;6.90;99.90;;;;;;4909889;29;20048;-92
2022/04/03 00:44:15;;;;;;;0.85;0.85;;;6.90;99.90;;;;;;4907553;29;20044;-91
2022/04/03 00:57:36;;;;;;;1.02;0.95;;;6.90;99.90;;;;;;4877139;29;20074;-92
2022/04/03 01:00:56;;;;;;;1.23;1.10;;;6.90;99.90;;;;;;4879760;29;20497;-90
2022/04/03 01:11:17;;;;;;;;;;;;;;;;;;;;;
2022/04/03 05:43:00;;;;;;;7.90;4.78;;;6.80;99.90;;;;;;4861549;29;20085;-88
2022/04/03 05:45:42;;;;;;;6.70;4.70;;;6.90;99.90;;;;;;4962109;28;20020;-88
2022/04/03 05:55:54;;;;;;;5.03;3.85;;;7.10;99.90;;;;;;4967062;28;20050;-87
2022/04/03 05:58:21;;;;;;;6.30;3.63;;;7.20;99.90;;;;;;4968081;28;20043;-87
2022/04/03 06:15:43;;;;;;;6.93;3.60;;;7.60;99.90;;;;;;4956422;29;20038;-95
2022/04/03 06:21:48;;;;;;;4.70;4.20;;;7.80;99.90;;;;;;4924892;29;20031;-96
2022/04/03 06:27:19;;;;;;;5.63;3.88;;;8.00;99.90;;;;;;4972730;28;20020;-95
2022/04/03 06:34:09;;;;;;;5.40;3.97;;;8.10;99.90;;;;;;4966595;28;20103;-91
2022/04/03 06:40:37;;;;;;;8.95;4.18;;;8.20;99.90;;;;;;4915523;29;20060;-93
2022/04/03 06:43:26;;;;;;;;;;;;;;;;;;;;;
2022/04/03 06:46:19;;;;;;;;;;;;;;;;;;;;;
2022/04/03 06:55:55;;;;;;;5.43;3.40;;;8.30;99.90;;;;;;4921605;29;20588;-89
2022/04/03 07:12:51;;;;;;;5.03;3.40;;;8.50;99.90;;;;;;4884146;29;20505;-93
2022/04/03 07:19:14;;;;;;;8.40;4.00;;;8.70;99.90;;;;;;4879643;29;20540;-91
2022/04/03 07:28:51;;;;;;;6.75;3.42;;;8.70;99.90;;;;;;4871535;29;20523;-86
2022/04/03 07:31:28;;;;;;;7.53;3.42;;;8.80;99.90;;;;;;4879360;29;20033;-89
2022/04/03 07:34:44;;;;;;;7.18;3.30;;;8.90;99.90;;;;;;4918122;28;20474;-92
2022/04/03 07:37:55;;;;;;;6.30;3.47;;;9.00;99.90;;;;;;4983745;28;20085;-91
2022/04/03 07:40:20;;;;;;;5.60;3.35;;;9.20;99.90;;;;;;4963166;28;20038;-88
2022/04/03 07:42:52;;;;;;;4.88;3.45;;;9.30;99.90;;;;;;4986571;28;20031;-95
2022/04/03 07:45:20;;;;;;;5.05;3.47;;;9.40;99.90;;;;;;4950350;28;20023;-93
2022/04/03 07:48:16;;;;;;;7.47;3.10;;;9.40;99.90;;;;;;4977047;28;20046;-92
2022/04/03 07:50:43;;;;;;;7.95;3.63;;;9.50;99.90;;;;;;4981466;28;20083;-91
2022/04/03 07:53:30;;;;;;;4.45;3.30;;;9.50;99.90;;;;;;4966002;28;20031;-92
2022/04/03 07:56:05;;;;;;;5.15;3.60;;;9.60;99.90;;;;;;4965163;28;20027;-90
2022/04/03 07:58:37;;;;;;;9.73;4.25;;;9.50;99.90;;;;;;4969619;28;20038;-89
2022/04/03 08:01:09;;;;;;;7.47;3.72;;;9.40;99.90;;;;;;4971201;28;20094;-90
2022/04/03 08:03:41;;;;;;;6.68;4.30;;;9.30;99.90;;;;;;5000420;28;20109;-95
2022/04/03 08:06:07;;;;;;;7.38;3.88;;;9.40;99.90;;;;;;4953738;28;20039;-87
2022/04/03 08:08:33;;;;;;;8.07;3.67;;;9.50;99.90;;;;;;4972017;28;20040;-87
2022/04/03 08:10:59;;;;;;;4.47;3.70;;;9.70;99.90;;;;;;4962711;28;20027;-91
2022/04/03 08:13:27;;;;;;;6.75;3.50;;;9.60;99.90;;;;;;4974954;28;20058;-88
2022/04/03 08:15:55;;;;;;;7.55;4.30;;;9.50;99.90;;;;;;4972038;28;20479;-89
2022/04/03 08:18:22;;;;;;;5.35;3.60;;;9.50;99.90;;;;;;4974671;28;20042;-87
2022/04/03 08:20:51;;;;;;;8.48;3.63;;;9.50;99.90;;;;;;4972801;28;20034;-92
2022/04/03 08:23:20;;;;;;;7.50;3.13;;;9.60;99.90;;;;;;4996760;28;20036;-90
2022/04/03 08:25:49;;;;;;;4.43;2.78;;;9.50;99.90;;;;;;4961161;28;20026;-91
2022/04/03 08:28:17;;;;;;;3.88;3.30;;;9.30;99.90;;;;;;4972375;28;20374;-87
2022/04/03 08:30:43;;;;;;;8.32;3.65;;;9.30;99.90;;;;;;4976061;28;20023;-86
2022/04/03 08:33:20;;;;;;;8.77;3.65;;;9.50;99.90;;;;;;4955121;28;20418;-92
2022/04/03 08:35:49;;;;;;;8.23;4.30;;;9.60;99.90;;;;;;4968061;28;20098;-89
2022/04/03 08:38:30;;;;;;;5.05;3.17;;;9.80;99.90;;;;;;4957013;28;20046;-88
2022/04/03 08:41:01;;;;;;;6.22;3.72;;;9.80;99.90;;;;;;4974754;28;20062;-90
2022/04/03 08:43:34;;;;;;;5.22;3.20;;;9.80;99.90;;;;;;4991971;28;20070;-90
2022/04/03 08:46:06;;;;;;;7.95;3.22;;;9.90;99.90;;;;;;4980106;28;20031;-94
2022/04/03 08:48:59;;;;;;;5.75;3.33;;;10.00;99.90;;;;;;4989193;28;20031;-91
2022/04/03 08:51:32;;;;;;;9.43;3.63;;;10.10;99.90;;;;;;5001114;28;20042;-91
2022/04/03 08:54:06;;;;;;;6.32;3.65;;;10.20;99.90;;;;;;4988898;28;20030;-90
2022/04/03 08:56:50;;;;;;;6.20;3.47;;;10.20;99.90;;;;;;4980351;28;20045;-90
2022/04/03 08:59:18;;;;;;;7.35;3.88;;;10.10;99.90;;;;;;4963375;28;20122;-91
2022/04/03 09:01:50;;;;;;;4.80;3.67;;;10.20;99.90;;;;;;4968057;28;20107;-94
2022/04/03 09:04:30;;;;;;;8.02;3.70;;;10.10;99.90;;;;;;4934128;28;20513;-88
2022/04/03 09:07:17;;;;;;;5.40;3.35;;;10.10;99.90;;;;;;4964006;28;20034;-88
2022/04/03 09:09:48;;;;;;;6.25;3.88;;;10.00;99.90;;;;;;4945117;29;20034;-88
2022/04/03 09:12:16;;;;;;;5.45;3.50;;;10.10;99.90;;;;;;4971847;28;20031;-87
2022/04/03 09:14:56;;;;;;;4.90;3.53;;;10.20;99.90;;;;;;4947106;28;20035;-88
2022/04/03 09:17:49;;;;;;;5.05;3.50;;;10.20;99.90;;;;;;4968595;28;20036;-88
2022/04/03 09:20:19;;;;;;;7.25;3.80;;;10.20;99.90;;;;;;4959666;28;20032;-89
2022/04/03 09:22:58;;;;;;;7.00;3.20;;;10.20;99.90;;;;;;4970928;29;20035;-89
2022/04/03 09:25:35;;;;;;;6.65;3.63;;;10.30;99.90;;;;;;4966473;28;20435;-89
2022/04/03 09:28:21;;;;;;;12.80;3.72;;;10.40;99.90;;;;;;4978309;28;20023;-89
2022/04/03 09:30:49;;;;;;;3.60;2.92;;;10.60;99.90;;;;;;4981296;28;20046;-89
2022/04/03 09:33:22;;;;;;;4.43;3.40;;;10.60;97.80;;;;;;4960895;28;20036;-89
2022/04/03 09:36:02;;;;;;;8.40;3.30;;;10.50;97.20;;;;;;4945736;29;20035;-89
2022/04/03 09:38:31;;;;;;;9.25;2.97;;;10.40;98.50;;;;;;4948408;29;20034;-88
2022/04/03 09:40:59;;;;;;;9.45;3.45;;;10.50;98.30;;;;;;4941735;29;20055;-89
2022/04/03 09:43:38;;;;;;;4.60;3.67;;;10.60;97.40;;;;;;4950571;29;20027;-88
2022/04/03 09:46:09;;;;;;;6.22;4.03;;;10.70;98.10;;;;;;4949692;29;20128;-88
2022/04/03 09:48:40;;;;;;;5.78;3.40;;;10.70;98.80;;;;;;4942856;28;20077;-89
2022/04/03 09:51:19;;;;;;;4.68;3.67;;;10.90;98.00;;;;;;4962319;28;20456;-89
2022/04/03 09:54:03;;;;;;;5.82;3.80;;;10.90;95.80;;;;;;4953974;29;20027;-89
2022/04/03 09:56:37;;;;;;;6.20;3.70;;;11.00;95.80;;;;;;4953515;29;20031;-88
2022/04/03 09:59:17;;;;;;;7.30;3.83;;;11.00;96.30;;;;;;4962087;28;20041;-88
2022/04/03 10:01:43;;;;;;;5.57;3.55;;;11.10;99.90;;;;;;4956806;29;20047;-89
2022/04/03 10:04:39;;;;;;;8.25;3.17;;;11.20;96.80;;;;;;4948249;29;20075;-89
2022/04/03 10:07:27;;;;;;;4.78;3.45;;;11.30;97.80;;;;;;4949632;29;20047;-89
2022/04/03 10:09:53;;;;;;;4.13;2.83;;;11.40;97.40;;;;;;4961493;28;20035;-89
2022/04/03 10:12:25;;;;;;;4.53;3.13;;;11.40;93.90;;;;;;4962915;28;20627;-89
2022/04/03 10:14:51;;;;;;;7.80;3.42;;;11.60;92.70;;;;;;4956223;29;20034;-90
2022/04/03 10:17:21;;;;;;;7.85;3.67;;;11.60;92.30;;;;;;4946103;29;20046;-89
2022/04/03 10:19:59;;;;;;;6.60;3.08;;;11.50;95.10;;;;;;4944869;29;20035;-90
2022/04/03 10:22:33;;;;;;;5.93;3.65;;;11.60;95.40;;;;;;4967692;28;20036;-93
2022/04/03 10:25:17;;;;;;;7.15;3.40;;;11.80;93.70;;;;;;4949935;29;20027;-86
2022/04/03 10:27:55;;;;;;;5.55;3.30;;;11.90;94.60;;;;;;4979900;28;20035;-89
2022/04/03 10:30:56;;;;;;;4.55;3.33;;;11.80;93.40;;;;;;4951578;29;20018;-88
2022/04/03 10:33:24;;;;;;;4.63;3.65;;;11.90;93.60;;;;;;4947508;28;20035;-88
2022/04/03 10:36:17;;;;;;;4.45;3.47;;;12.00;93.80;;;;;;4948767;29;20023;-91
2022/04/03 10:39:04;;;;;;;;;;;12.10;93.90;;;;;;4958605;28;20078;-87
2022/04/03 10:41:43;;;;;;;5.82;4.28;;;12.20;91.90;;;;;;4945347;29;19922;-87
2022/04/03 10:44:33;;;;;;;4.47;3.60;;;11.80;91.70;;;;;;4946776;29;20055;-88
2022/04/03 10:47:22;;;;;;;4.53;4.00;;;11.80;93.90;;;;;;4957572;28;20039;-87
2022/04/03 10:50:01;;;;;;;19.63;13.80;;;12.00;93.50;;;;;;4940159;29;20027;-82
2022/04/03 10:52:40;;;;;;;21.95;16.50;;;11.90;93.40;;;;;;4940333;29;20066;-88
2022/04/03 10:55:12;;;;;;;89.95;55.13;;;11.90;91.30;;;;;;4955750;29;20495;-84
2022/04/03 10:57:46;;;;;;;28.23;17.88;;;11.90;92.00;;;;;;4959991;28;20015;-93
2022/04/03 11:00:14;;;;;;;34.85;20.92;;;11.80;93.30;;;;;;4958332;29;20491;-92
2022/04/03 11:02:57;;;;;;;24.60;16.63;;;12.10;97.40;;;;;;4963936;28;20144;-92
2022/04/03 11:05:23;;;;;;;;;;;12.50;93.70;;;;;;4977718;28;20057;-92
2022/04/03 11:08:04;;;;;;;23.55;14.48;;;12.90;93.80;;;;;;4972117;28;19910;-85
2022/04/03 11:10:54;;;;;;;29.00;17.75;;;13.10;91.00;;;;;;4954301;28;20482;-92
2022/04/03 11:14:36;;;;;;;;;;;;;;;;;;;;;
2022/04/03 11:16:56;;;;;;;15.75;11.02;;;12.80;88.50;;;;;;4965922;28;20031;-93
2022/04/03 11:19:45;;;;;;;13.52;10.27;;;12.90;92.10;;;;;;4947695;28;20031;-94
2022/04/03 11:22:24;;;;;;;23.23;16.30;;;13.20;90.40;;;;;;4977285;28;20082;-92
2022/04/03 11:24:53;;;;;;;10.55;6.22;;;13.50;90.80;;;;;;4963364;28;20085;-90
2022/04/03 11:27:20;;;;;;;10.98;5.82;;;13.70;88.90;;;;;;4970165;28;20019;-92
2022/04/03 11:29:49;;;;;;;17.77;10.02;;;13.70;87.50;;;;;;4987168;28;20030;-92
2022/04/03 11:32:27;;;;;;;19.98;12.60;;;13.70;86.60;;;;;;4993437;28;20026;-93
2022/04/03 11:34:58;;;;;;;33.75;22.10;;;13.50;86.90;;;;;;4968722;28;20055;-91
2022/04/03 11:37:29;;;;;;;12.93;9.65;;;13.60;85.30;;;;;;4980204;28;20011;-89
2022/04/03 11:40:21;;;;;;;7.60;5.85;;;13.70;84.70;;;;;;4978156;28;20054;-91
2022/04/03 11:43:04;;;;;;;13.90;7.97;;;13.80;84.00;;;;;;4969174;28;20026;-91
2022/04/03 11:45:33;;;;;;;11.55;7.10;;;13.60;82.90;;;;;;4973934;28;20059;-91
2022/04/03 11:48:21;;;;;;;38.75;27.58;;;13.80;84.80;;;;;;4989879;28;20083;-90
2022/04/03 11:50:49;;;;;;;8.10;6.93;;;14.00;81.10;;;;;;4965838;28;20043;-90
2022/04/03 11:53:15;;;;;;;22.83;16.70;;;14.10;79.80;;;;;;4981416;28;20030;-89
2022/04/03 11:55:42;;;;;;;7.68;5.45;;;14.30;82.30;;;;;;4985600;28;20752;-91
2022/04/03 11:58:09;;;;;;;18.10;10.50;;;14.50;79.90;;;;;;4978167;28;20031;-89
2022/04/03 12:00:46;;;;;;;14.32;6.03;;;14.50;80.50;;;;;;4955128;28;20038;-89
2022/04/03 12:03:12;;;;;;;19.42;14.57;;;14.40;80.60;;;;;;4967377;28;20189;-91
2022/04/03 12:06:01;;;;;;;6.20;4.45;;;14.50;84.10;;;;;;4969348;28;20086;-91
2022/04/03 12:08:56;;;;;;;4.60;3.67;;;14.80;79.10;;;;;;4981887;28;20027;-90
2022/04/03 12:11:33;;;;;;;11.45;8.98;;;15.30;78.80;;;;;;4960296;28;20019;-91
2022/04/03 12:14:30;;;;;;;12.88;9.32;;;16.30;75.60;;;;;;4957861;28;20023;-91
2022/04/03 12:17:01;;;;;;;13.60;9.57;;;19.80;70.40;;;;;;4985969;28;20031;-90
2022/04/03 12:19:28;;;;;;;8.48;6.68;;;23.70;58.00;;;;;;4967572;28;20034;-90
2022/04/03 12:21:57;;;;;;;6.45;5.55;;;25.40;51.60;;;;;;4982854;28;20035;-91
2022/04/03 12:24:56;;;;;;;10.25;6.55;;;26.10;48.30;;;;;;4975295;28;20046;-90
2022/04/03 12:27:33;;;;;;;8.90;6.75;;;27.70;45.50;;;;;;4973494;28;20117;-91
2022/04/03 12:30:01;;;;;;;8.10;5.28;;;29.30;42.50;;;;;;4965962;28;20030;-91
2022/04/03 12:32:37;;;;;;;5.53;4.20;;;28.40;41.10;;;;;;4951909;28;20030;-89
2022/04/03 12:35:11;;;;;;;5.00;3.47;;;28.80;41.80;;;;;;4976288;28;20027;-88
2022/04/03 12:37:40;;;;;;;5.63;3.83;;;29.80;40.20;;;;;;4991344;28;20030;-89
2022/04/03 12:40:40;;;;;;;7.72;5.07;;;30.20;40.00;;;;;;4978029;28;20025;-88
2022/04/03 12:43:09;;;;;;;8.80;2.65;;;30.90;39.40;;;;;;4994208;28;20405;-89
2022/04/03 12:45:36;;;;;;;3.95;2.53;;;31.90;37.00;;;;;;4964499;28;20035;-90
2022/04/03 12:48:03;;;;;;;8.52;3.80;;;32.60;35.90;;;;;;4971327;28;20031;-91
2022/04/03 12:50:59;;;;;;;4.13;2.95;;;33.60;35.40;;;;;;4974582;28;20054;-89
2022/04/03 12:53:26;;;;;;;4.57;2.97;;;33.80;34.20;;;;;;4967474;28;20046;-90
2022/04/03 12:55:53;;;;;;;5.65;4.18;;;35.80;33.40;;;;;;4987040;28;20026;-90
2022/04/03 12:58:29;;;;;;;8.75;5.78;;;36.50;32.60;;;;;;4998119;28;20041;-90
2022/04/03 13:01:26;;;;;;;5.10;3.05;;;37.00;33.10;;;;;;4970608;28;20035;-89
2022/04/03 13:03:54;;;;;;;4.30;2.72;;;37.80;32.00;;;;;;4980769;28;20069;-90
2022/04/03 13:06:22;;;;;;;3.75;2.17;;;38.40;31.50;;;;;;5011712;28;20106;-88
2022/04/03 13:09:05;;;;;;;8.25;4.55;;;38.50;30.20;;;;;;4993860;28;20014;-89
2022/04/03 13:11:44;;;;;;;3.80;2.50;;;38.10;30.80;;;;;;4986528;28;20073;-85
2022/04/03 13:14:11;;;;;;;3.50;2.63;;;38.20;30.00;;;;;;4997390;28;20034;-83
2022/04/03 13:16:43;;;;;;;7.57;3.60;;;37.80;29.70;;;;;;4999338;28;20011;-87
2022/04/03 13:19:09;;;;;;;3.13;2.33;;;37.70;30.40;;;;;;4977738;28;20046;-87
2022/04/03 13:21:41;;;;;;;5.65;2.40;;;37.50;29.80;;;;;;4970201;28;20042;-86
2022/04/03 13:24:08;;;;;;;2.97;2.22;;;36.20;31.10;;;;;;4975508;28;20027;-85
2022/04/03 13:26:34;;;;;;;3.92;2.10;;;35.50;30.30;;;;;;4976926;28;20082;-86
2022/04/03 13:28:59;;;;;;;4.10;2.30;;;33.40;31.70;;;;;;4963332;28;20031;-83
2022/04/03 13:31:26;;;;;;;4.03;2.45;;;31.80;32.00;;;;;;4976135;28;20089;-84
2022/04/03 13:33:53;;;;;;;4.03;3.03;;;32.80;32.90;;;;;;4964169;28;20207;-85
2022/04/03 13:36:19;;;;;;;4.22;3.72;;;34.30;31.90;;;;;;4963833;28;20090;-85
2022/04/03 13:38:50;;;;;;;9.57;2.20;;;35.40;30.70;;;;;;4964905;28;20650;-85
2022/04/03 13:41:17;;;;;;;2.47;2.10;;;36.30;30.10;;;;;;4972826;28;20109;-83
2022/04/03 13:43:43;;;;;;;2.15;1.92;;;36.80;29.90;;;;;;4974616;28;20375;-84
2022/04/03 13:46:08;;;;;;;7.13;2.35;;;36.50;30.20;;;;;;4958158;28;20027;-86
2022/04/03 13:48:37;;;;;;;5.60;2.47;;;36.20;30.30;;;;;;4981806;28;20107;-88
2022/04/03 13:51:06;;;;;;;2.72;2.22;;;35.40;30.30;;;;;;4975678;28;20106;-86
2022/04/03 13:53:33;;;;;;;5.05;2.55;;;34.30;30.10;;;;;;4985463;28;20061;-86
2022/04/03 13:56:00;;;;;;;3.33;2.30;;;34.30;30.70;;;;;;4979636;28;20486;-86
2022/04/03 13:58:29;;;;;;;3.90;2.30;;;34.90;30.40;;;;;;4976192;28;20046;-86
2022/04/03 14:00:58;;;;;;;4.57;2.40;;;34.40;31.10;;;;;;4961333;28;20088;-86
2022/04/03 14:03:27;;;;;;;2.65;2.13;;;32.90;32.10;;;;;;4956005;28;20105;-86
2022/04/03 14:05:53;;;;;;;2.33;2.13;;;32.30;32.60;;;;;;4964724;28;20065;-87
2022/04/03 14:08:22;;;;;;;5.57;2.85;;;31.90;32.20;;;;;;4967420;28;20039;-86
2022/04/03 14:10:50;;;;;;;3.22;2.22;;;29.40;33.50;;;;;;4973618;28;20035;-83
2022/04/03 14:13:20;;;;;;;4.43;2.80;;;26.30;36.40;;;;;;4960614;28;20101;-84
2022/04/03 14:15:49;;;;;;;3.00;2.03;;;24.50;38.90;;;;;;4980158;28;20034;-83
2022/04/03 14:18:25;;;;;;;5.07;2.25;;;23.20;41.80;;;;;;4974312;28;20049;-83
2022/04/03 14:20:53;;;;;;;3.92;2.70;;;21.10;42.40;;;;;;4966016;28;20442;-82
2022/04/03 14:23:23;;;;;;;4.53;2.97;;;19.70;44.60;;;;;;4972427;28;20034;-83
2022/04/03 14:26:02;;;;;;;;;;;;;;;;;;;;;
2022/04/03 14:28:29;;;;;;;4.32;2.47;;;18.10;46.80;;;;;;4988143;28;20046;-86
2022/04/03 14:30:55;;;;;;;7.50;3.10;;;17.20;47.00;;;;;;4976184;28;20033;-85
2022/04/03 14:33:21;;;;;;;2.67;2.47;;;16.30;48.90;;;;;;4961519;28;20040;-89
2022/04/03 14:36:02;;;;;;;4.50;2.70;;;15.80;52.20;;;;;;4975927;28;20030;-85
2022/04/03 14:38:31;;;;;;;6.20;3.88;;;15.20;52.20;;;;;;4963375;28;20061;-93
2022/04/03 14:41:00;;;;;;;5.95;3.00;;;15.10;54.80;;;;;;4950864;28;20097;-88
2022/04/03 14:43:28;;;;;;;6.43;3.25;;;14.70;53.50;;;;;;4969989;28;20027;-91
2022/04/03 14:46:02;;;;;;;4.55;2.95;;;14.30;55.30;;;;;;4972869;28;20094;-89
2022/04/03 14:48:28;;;;;;;4.28;2.47;;;14.30;56.50;;;;;;5250419;23;20062;-91
2022/04/03 14:50:54;;;;;;;9.52;2.92;;;14.30;56.00;;;;;;4971729;28;20413;-85
2022/04/03 14:53:20;;;;;;;5.57;3.20;;;14.10;57.30;;;;;;4985045;28;20026;-88
2022/04/03 14:56:07;;;;;;;4.63;2.83;;;13.80;57.90;;;;;;4977517;28;20030;-91
2022/04/03 14:58:33;;;;;;;4.53;2.80;;;13.40;58.30;;;;;;4990921;28;20211;-83
2022/04/03 15:00:59;;;;;;;3.50;2.40;;;13.10;59.10;;;;;;4964479;28;20039;-90
2022/04/03 15:03:25;;;;;;;7.90;3.10;;;13.10;60.70;;;;;;4975781;28;20030;-82
2022/04/03 15:05:51;;;;;;;5.13;3.47;;;13.00;59.80;;;;;;4974247;28;20433;-85
2022/04/03 15:08:22;;;;;;;3.88;2.72;;;13.10;59.90;;;;;;4969928;28;20043;-86
2022/04/03 15:10:48;;;;;;;5.68;2.92;;;13.50;59.60;;;;;;4960286;28;20375;-85
2022/04/03 15:13:16;;;;;;;4.90;2.72;;;13.50;60.50;;;;;;4969371;28;20114;-86
2022/04/03 15:15:43;;;;;;;5.18;3.10;;;13.50;61.60;;;;;;4958517;28;20023;-86
2022/04/03 15:18:14;;;;;;;5.70;3.50;;;13.30;62.10;;;;;;4974447;28;20058;-88
2022/04/03 15:20:43;;;;;;;8.63;3.30;;;12.70;62.80;;;;;;4963644;28;20059;-88
2022/04/03 15:23:10;;;;;;;4.72;2.88;;;12.50;64.10;;;;;;4973067;28;20069;-86
2022/04/03 15:26:01;;;;;;;7.10;3.30;;;12.60;65.30;;;;;;4962996;28;20030;-87
2022/04/03 15:28:27;;;;;;;7.97;3.47;;;12.40;65.20;;;;;;4974762;28;20042;-84
2022/04/03 15:30:54;;;;;;;6.82;3.60;;;12.20;64.30;;;;;;4971293;28;20443;-84
2022/04/03 15:33:25;;;;;;;5.93;3.10;;;12.20;66.10;;;;;;4955991;28;20026;-89
2022/04/03 15:35:54;;;;;;;6.30;2.90;;;12.30;65.50;;;;;;4978183;28;20035;-87
2022/04/03 15:38:24;;;;;;;5.13;4.05;;;12.30;65.50;;;;;;4966861;28;20082;-86
2022/04/03 15:40:49;;;;;;;7.18;3.47;;;12.10;65.60;;;;;;4961931;28;20086;-86
2022/04/03 15:43:16;;;;;;;10.80;5.00;;;12.00;65.00;;;;;;4978980;28;20023;-87
2022/04/03 15:45:42;;;;;;;5.70;3.72;;;12.00;65.80;;;;;;4980350;28;20023;-85
2022/04/03 15:48:08;;;;;;;9.15;3.45;;;12.00;68.10;;;;;;4979434;28;20106;-86
2022/04/03 15:50:34;;;;;;;5.82;3.33;;;11.90;67.30;;;;;;4979917;28;20093;-84
2022/04/03 15:53:00;;;;;;;6.78;3.53;;;11.90;68.60;;;;;;4986555;28;20105;-84
2022/04/03 15:55:26;;;;;;;7.47;2.88;;;11.80;67.60;;;;;;4986140;28;20045;-83
2022/04/03 15:57:52;;;;;;;7.78;3.00;;;11.80;67.70;;;;;;4999823;28;20029;-82
2022/04/03 16:00:19;;;;;;;4.95;3.10;;;11.90;68.00;;;;;;4991639;28;20595;-86
2022/04/03 16:02:45;;;;;;;10.27;3.22;;;12.00;67.90;;;;;;4976051;28;20093;-87
2022/04/03 16:05:12;;;;;;;6.28;3.40;;;12.00;68.50;;;;;;4979721;28;20031;-86
2022/04/03 16:07:42;;;;;;;15.13;3.85;;;12.10;69.70;;;;;;4977510;28;20046;-84
2022/04/03 16:10:29;;;;;;;6.13;3.90;;;11.90;70.80;;;;;;4979178;28;20031;-87
2022/04/03 16:12:56;;;;;;;8.27;4.18;;;12.40;71.00;;;;;;4962730;28;20014;-82
2022/04/03 16:15:23;;;;;;;6.95;3.35;;;13.80;70.40;;;;;;4983553;28;20441;-84
2022/04/03 16:17:50;;;;;;;9.02;3.40;;;14.50;67.20;;;;;;4973764;28;20026;-84
2022/04/03 16:20:16;;;;;;;4.85;3.38;;;14.20;67.20;;;;;;4978114;28;20386;-84
2022/04/03 16:22:43;;;;;;;6.65;5.40;;;13.50;67.70;;;;;;4978980;28;20082;-90
2022/04/03 16:25:10;;;;;;;4.20;3.40;;;13.50;69.50;;;;;;4965751;28;20027;-83
2022/04/03 16:27:38;;;;;;;4.75;3.10;;;13.60;69.10;;;;;;4988553;28;20037;-89
2022/04/03 16:30:11;;;;;;;6.47;3.38;;;13.70;69.40;;;;;;4992883;28;20082;-89
2022/04/03 16:32:37;;;;;;;4.15;3.30;;;13.70;71.10;;;;;;4991291;28;20037;-86
2022/04/03 16:35:04;;;;;;;16.52;7.18;;;13.40;70.40;;;;;;4989606;28;20022;-85
2022/04/03 16:37:30;;;;;;;6.82;3.72;;;12.90;72.00;;;;;;4973497;28;20057;-88
2022/04/03 16:39:56;;;;;;;7.28;5.18;;;12.60;72.90;;;;;;4973867;28;20034;-84
2022/04/03 16:42:22;;;;;;;11.05;4.15;;;12.70;75.00;;;;;;4987179;28;20026;-84
2022/04/03 16:44:48;;;;;;;6.97;3.55;;;12.40;74.10;;;;;;4983860;28;20027;-85
2022/04/03 16:47:14;;;;;;;4.85;3.72;;;12.00;76.20;;;;;;4989750;28;20026;-86
2022/04/03 16:49:40;;;;;;;6.82;3.35;;;11.70;78.20;;;;;;4974919;28;20050;-85
2022/04/03 16:52:06;;;;;;;5.35;3.17;;;11.20;80.20;;;;;;4966077;28;20031;-82
2022/04/03 16:54:36;;;;;;;4.53;3.38;;;11.00;82.90;;;;;;4988051;28;20038;-83
2022/04/03 16:57:02;;;;;;;6.90;3.70;;;10.90;83.80;;;;;;4987461;28;20105;-84
2022/04/03 16:59:28;;;;;;;5.90;3.72;;;10.70;85.30;;;;;;4976219;28;20581;-92
2022/04/03 17:01:58;;;;;;;8.98;4.00;;;10.50;89.50;;;;;;5008352;28;20026;-93
2022/04/03 17:04:35;;;;;;;28.83;12.15;;;10.30;92.10;;;;;;4990418;28;20121;-90
2022/04/03 17:07:06;;;;;;;8.30;4.63;;;10.30;93.40;;;;;;4997725;28;20030;-88
2022/04/03 17:09:45;;;;;;;19.65;8.70;;;10.20;95.90;;;;;;5004743;28;20115;-95
2022/04/03 17:12:54;;;;;;;9.07;5.45;;;10.20;98.80;;;;;;5317108;23;20046;-94
2022/04/03 17:21:21;;;;;;;;;;;;;;;;;;;;;
2022/04/03 17:23:53;;;;;;;9.90;3.55;;;9.90;99.90;;;;;;5038714;28;20072;-93
2022/04/03 17:27:08;;;;;;;6.68;3.20;;;9.80;99.90;;;;;;5041968;28;20036;-93
2022/04/03 17:56:19;;;;;;;5.07;3.47;;;9.00;99.90;;;;;;4984757;28;20081;-93
2022/04/03 17:59:05;;;;;;;9.30;4.45;;;9.00;99.90;;;;;;4973540;28;20131;-93
2022/04/03 18:01:38;;;;;;;12.43;4.88;;;8.90;99.90;;;;;;4997142;28;20097;-94
2022/04/03 18:04:12;;;;;;;9.80;4.20;;;8.90;99.90;;;;;;4968736;28;20055;-93
2022/04/03 18:12:20;;;;;;;12.98;5.20;;;8.70;99.90;;;;;;5030567;28;20469;-94
2022/04/03 18:17:53;;;;;;;7.93;4.13;;;8.60;99.90;;;;;;5034305;23;20067;-93
2022/04/03 18:26:13;;;;;;;9.07;4.55;;;8.50;99.90;;;;;;4991462;28;20047;-92
2022/04/03 18:29:00;;;;;;;9.90;5.25;;;8.40;99.90;;;;;;5001735;23;20082;-92
2022/04/03 18:31:32;;;;;;;7.40;4.10;;;8.30;99.90;;;;;;5098292;23;20030;-93
2022/04/03 18:34:07;;;;;;;8.25;4.55;;;8.20;99.90;;;;;;5013743;28;20269;-93
2022/04/03 18:45:39;;;;;;;10.07;6.32;;;7.90;99.90;;;;;;5014970;28;20054;-94
2022/04/03 18:48:32;;;;;;;7.55;5.78;;;7.80;99.90;;;;;;4993731;28;20034;-93
2022/04/03 18:51:20;;;;;;;10.85;6.60;;;7.70;99.90;;;;;;4977337;28;20016;-94
2022/04/03 18:54:30;;;;;;;;;;;;;;;;;;;;;
2022/04/03 19:10:33;;;;;;;9.57;6.07;;;7.90;99.90;;;;;;5025744;28;20034;-95
2022/04/03 19:15:56;;;;;;;18.83;9.25;;;8.00;99.90;;;;;;4990830;28;20256;-94
2022/04/03 19:19:03;;;;;;;13.27;7.50;;;8.10;99.90;;;;;;4982254;28;20251;-95
2022/04/03 19:21:29;;;;;;;8.63;6.43;;;8.20;99.90;;;;;;4962030;28;20023;-90
2022/04/03 19:23:58;;;;;;;8.43;6.00;;;8.30;99.90;;;;;;4968082;28;20054;-86
2022/04/03 19:26:25;;;;;;;10.68;6.32;;;8.30;99.90;;;;;;4978517;28;20106;-90
2022/04/03 19:28:53;;;;;;;10.35;6.13;;;8.30;99.90;;;;;;4986711;28;20454;-93
2022/04/03 19:31:32;;;;;;;12.63;6.30;;;8.30;99.90;;;;;;4981163;28;20023;-90
2022/04/03 19:34:05;;;;;;;11.10;7.15;;;8.30;99.90;;;;;;4983253;28;20057;-93
2022/04/03 19:36:58;;;;;;;12.57;6.80;;;8.30;99.90;;;;;;4960571;28;20058;-90
2022/04/03 19:39:29;;;;;;;15.13;7.35;;;8.30;99.90;;;;;;4967560;28;20034;-91
2022/04/03 19:41:59;;;;;;;13.48;7.10;;;8.30;99.90;;;;;;4956979;29;20034;-90
2022/04/03 19:44:26;;;;;;;12.55;6.82;;;8.30;99.90;;;;;;4967971;28;20096;-90
2022/04/03 19:46:53;;;;;;;14.30;8.95;;;8.30;99.90;;;;;;4976333;28;20090;-88
2022/04/03 19:49:22;;;;;;;10.50;7.40;;;8.30;99.90;;;;;;4967228;28;20030;-89
2022/04/03 19:52:00;;;;;;;11.60;7.75;;;8.20;99.90;;;;;;4967576;28;20026;-91
2022/04/03 19:54:35;;;;;;;9.48;6.70;;;8.20;99.90;;;;;;4961882;28;20039;-91
2022/04/03 19:57:01;;;;;;;16.08;6.63;;;8.10;99.90;;;;;;4963911;28;20054;-90
2022/04/03 19:59:48;;;;;;;10.85;7.47;;;8.00;99.90;;;;;;4986806;28;20031;-90
2022/04/03 20:02:24;;;;;;;13.88;8.55;;;7.90;99.90;;;;;;4966857;28;20026;-89
2022/04/03 20:04:50;;;;;;;13.45;9.48;;;7.70;99.90;;;;;;4990106;28;20019;-91
2022/04/03 20:07:32;;;;;;;18.25;9.02;;;7.60;99.90;;;;;;4969118;28;20019;-91
2022/04/03 20:10:32;;;;;;;12.18;6.55;;;7.50;99.90;;;;;;4990061;28;20510;-92
2022/04/03 20:13:16;;;;;;;10.82;6.75;;;7.40;99.90;;;;;;4946767;29;20007;-91
2022/04/03 20:15:42;;;;;;;7.22;6.10;;;7.30;99.90;;;;;;4955858;29;20142;-91
2022/04/03 20:18:37;;;;;;;9.70;5.82;;;7.20;99.90;;;;;;4946751;29;20038;-93
2022/04/03 20:21:03;;;;;;;10.55;6.00;;;7.10;99.90;;;;;;4965398;29;20027;-92
2022/04/03 20:23:31;;;;;;;9.85;6.25;;;7.10;99.90;;;;;;4971354;28;20113;-92
2022/04/03 20:26:02;;;;;;;10.10;5.78;;;7.00;99.90;;;;;;4979253;28;20055;-93
2022/04/03 20:28:49;;;;;;;;;;;7.00;99.90;;;;;;4978383;28;20027;-91
2022/04/03 20:31:15;;;;;;;8.45;5.65;;;6.90;99.90;;;;;;4980472;28;19911;-93
2022/04/03 20:34:20;;;;;;;9.30;5.75;;;6.80;99.90;;;;;;4965858;28;20039;-91
2022/04/03 20:37:13;;;;;;;6.90;5.00;;;6.80;99.90;;;;;;4957990;29;20027;-92
2022/04/03 20:42:40;;;;;;;10.75;5.57;;;6.80;99.90;;;;;;4938931;29;19918;-90
2022/04/03 20:45:11;;;;;;;8.75;6.10;;;6.80;99.90;;;;;;4950303;29;20031;-91
2022/04/03 20:47:43;;;;;;;9.70;6.15;;;6.80;99.90;;;;;;4963113;28;20035;-88
2022/04/03 20:50:21;;;;;;;9.50;6.03;;;6.80;99.90;;;;;;4960432;28;20055;-91
2022/04/03 20:52:47;;;;;;;10.25;6.00;;;6.80;99.90;;;;;;4947754;28;20486;-90
2022/04/03 20:55:18;;;;;;;11.90;6.35;;;6.80;99.90;;;;;;4942355;29;20035;-90
2022/04/03 20:58:22;;;;;;;11.05;5.97;;;6.80;99.90;;;;;;4942182;29;20122;-87
2022/04/03 21:01:30;;;;;;;11.23;6.00;;;6.80;99.90;;;;;;4946694;29;20043;-94
2022/04/03 21:04:01;;;;;;;9.35;5.63;;;7.00;99.90;;;;;;4962721;28;20027;-92
2022/04/03 21:06:49;;;;;;;8.35;5.50;;;7.10;99.90;;;;;;4955872;29;20043;-92
2022/04/03 21:13:04;;;;;;;8.52;5.57;;;7.20;99.90;;;;;;4941380;28;20155;-91
2022/04/03 21:15:40;;;;;;;;;;;;;;;;;;;;;
2022/04/03 21:18:22;;;;;;;10.57;5.43;;;7.40;99.90;;;;;;4962163;28;20110;-90
2022/04/03 21:20:52;;;;;;;9.45;5.40;;;7.60;99.90;;;;;;4971232;28;20074;-90